Time;durP1;ratioP1;P1;durP2;ratioP2;P2;SDS_P1;SDS_P2;PMS_P1;PMS_P2;Temp;Humidity;BMP_temperature;BMP_pressure;BME280_temperature;BME280_humidity;BME280_pressure;Samples;Min_cycle;Max_cycle;Signal;HPM_P1;HPM_P2
2024/02/22 00:01:17;;;;;;;;;;;;;;;-128.00;-1.00;-1.00;106945;1254;1002613;-64
2024/02/22 00:03:44;;;;;;;;;;;;;;;-128.00;-1.00;-1.00;106884;1253;1012509;-67
2024/02/22 00:06:12;;;;;;;;;;;;;;;-128.00;-1.00;-1.00;106959;1252;1002194;-65
2024/02/22 00:08:40;;;;;;;;;;;;;;;-128.00;-1.00;-1.00;106650;1253;1010564;-65
2024/02/22 00:11:08;;;;;;;;;;;;;;;-128.00;-1.00;-1.00;106869;1254;1001701;-65
2024/02/22 00:13:35;;;;;;;;;;;;;;;-128.00;-1.00;-1.00;106900;1253;1002577;-64
2024/02/22 00:16:05;;;;;;;;;;;;;;;-128.00;-1.00;-1.00;106952;1252;1002389;-67
2024/02/22 00:18:33;;;;;;;;;;;;;;;-128.00;-1.00;-1.00;106901;1252;1012540;-65
2024/02/22 00:21:01;;;;;;;;;;;;;;;-128.00;-1.00;-1.00;106994;1253;1002251;-65
2024/02/22 00:23:29;;;;;;;;;;;;;;;-128.00;-1.00;-1.00;106888;1252;1002374;-64
2024/02/22 00:25:56;;;;;;;;;;;;;;;-128.00;-1.00;-1.00;106999;1253;1002527;-67
2024/02/22 00:28:23;;;;;;;;;;;;;;;-128.00;-1.00;-1.00;106611;1254;1002578;-68
2024/02/22 00:30:51;;;;;;;;;;;;;;;-128.00;-1.00;-1.00;106977;1253;1002720;-64
2024/02/22 00:33:18;;;;;;;;;;;;;;;-128.00;-1.00;-1.00;106891;1252;1003201;-65
2024/02/22 00:35:46;;;;;;;;;;;;;;;-128.00;-1.00;-1.00;106947;1253;1002238;-65
2024/02/22 00:38:13;;;;;;;;;;;;;;;-128.00;-1.00;-1.00;106913;1257;1002103;-65
2024/02/22 00:40:41;;;;;;;;;;;;;;;-128.00;-1.00;-1.00;106832;1259;1002315;-66
2024/02/22 00:43:08;;;;;;;;;;;;;;;-128.00;-1.00;-1.00;106960;1253;1002002;-65
2024/02/22 00:45:36;;;;;;;;;;;;;;;-128.00;-1.00;-1.00;106869;1254;1002628;-65
2024/02/22 00:48:03;;;;;;;;;;;;;;;-128.00;-1.00;-1.00;106924;1253;1002856;-66
2024/02/22 00:50:31;;;;;;;;;;;;;;;-128.00;-1.00;-1.00;106974;1253;1001941;-65
2024/02/22 00:52:59;;;;;;;;;;;;;;;-128.00;-1.00;-1.00;106842;1259;1002175;-65
2024/02/22 00:55:26;;;;;;;;;;;;;;;-128.00;-1.00;-1.00;106941;1253;1002528;-65
2024/02/22 00:57:54;;;;;;;;;;;;;;;-128.00;-1.00;-1.00;106890;1252;1002008;-65
2024/02/22 01:00:21;;;;;;;;;;;;;;;-128.00;-1.00;-1.00;106913;1253;1002389;-65
2024/02/22 01:02:49;;;;;;;;;;;;;;;-128.00;-1.00;-1.00;106898;1254;1002426;-66
2024/02/22 01:05:17;;;;;;;;;;;;;;;-128.00;-1.00;-1.00;106907;1253;1002571;-65
2024/02/22 01:07:44;;;;;;;;;;;;;;;-128.00;-1.00;-1.00;106870;1255;1012418;-66
2024/02/22 01:10:12;;;;;;;;;;;;;;;-128.00;-1.00;-1.00;106871;1254;1002371;-67
2024/02/22 01:12:39;;;;;;;;;;;;;;;-128.00;-1.00;-1.00;106934;1253;1002387;-66
2024/02/22 01:15:07;;;;;;;;;;;;;;;-128.00;-1.00;-1.00;106906;1254;1002675;-66
2024/02/22 01:17:34;;;;;;;;;;;;;;;-128.00;-1.00;-1.00;106886;1254;1004209;-63
2024/02/22 01:20:04;;;;;;;;;;;;;;;-128.00;-1.00;-1.00;106959;1253;1002651;-66
2024/02/22 01:22:31;;;;;;;;;;;;;;;-128.00;-1.00;-1.00;106730;1253;1010359;-66
2024/02/22 01:24:59;;;;;;;;;;;;;;;-128.00;-1.00;-1.00;106521;1253;1002188;-67
2024/02/22 01:27:27;;;;;;;;;;;;;;;-128.00;-1.00;-1.00;106759;1254;1002517;-66
2024/02/22 01:29:54;;;;;;;;;;;;;;;-128.00;-1.00;-1.00;106756;1258;1002481;-70
2024/02/22 01:32:22;;;;;;;;;;;;;;;-128.00;-1.00;-1.00;106733;1254;1002408;-66
2024/02/22 01:34:49;;;;;;;;;;;;;;;-128.00;-1.00;-1.00;106729;1254;1002224;-66
2024/02/22 01:37:17;;;;;;;;;;;;;;;-128.00;-1.00;-1.00;106744;1254;1002864;-66
2024/02/22 01:39:45;;;;;;;;;;;;;;;-128.00;-1.00;-1.00;106797;1253;1002330;-67
2024/02/22 01:42:13;;;;;;;;;;;;;;;-128.00;-1.00;-1.00;106564;1259;1012709;-66
2024/02/22 01:44:40;;;;;;;;;;;;;;;-128.00;-1.00;-1.00;106799;1253;1002582;-65
2024/02/22 01:47:08;;;;;;;;;;;;;;;-128.00;-1.00;-1.00;106723;1254;1002728;-64
2024/02/22 01:49:35;;;;;;;;;;;;;;;-128.00;-1.00;-1.00;106801;1254;1002472;-65
2024/02/22 01:52:03;;;;;;;;;;;;;;;-128.00;-1.00;-1.00;106748;1258;1002437;-65
2024/02/22 01:54:30;;;;;;;;;;;;;;;-128.00;-1.00;-1.00;106728;1253;1001930;-65
2024/02/22 01:56:58;;;;;;;;;;;;;;;-128.00;-1.00;-1.00;106739;1259;1001939;-65
2024/02/22 01:59:25;;;;;;;;;;;;;;;-128.00;-1.00;-1.00;106562;1259;1002633;-66
2024/02/22 02:01:54;;;;;;;;;;;;;;;-128.00;-1.00;-1.00;106581;1257;1002433;-71
2024/02/22 02:04:22;;;;;;;;;;;;;;;-128.00;-1.00;-1.00;106406;1262;1013643;-66
2024/02/22 02:06:49;;;;;;;;;;;;;;;-128.00;-1.00;-1.00;106444;1262;1002870;-65
2024/02/22 02:09:17;;;;;;;;;;;;;;;-128.00;-1.00;-1.00;106262;1257;1002540;-68
2024/02/22 02:11:44;;;;;;;;;;;;;;;-128.00;-1.00;-1.00;106292;1259;1002845;-67
2024/02/22 02:14:12;;;;;;;;;;;;;;;-128.00;-1.00;-1.00;106411;1257;1010849;-67
2024/02/22 02:16:40;;;;;;;;;;;;;;;-128.00;-1.00;-1.00;106389;1262;1002911;-67
2024/02/22 02:19:08;;;;;;;;;;;;;;;-128.00;-1.00;-1.00;106403;1257;1002852;-66
2024/02/22 02:21:53;;;;;;;;;;;;;;;-128.00;-1.00;-1.00;106406;1257;1002278;-68
2024/02/22 02:24:21;;;;;;;;;;;;;;;-128.00;-1.00;-1.00;106378;1262;1010130;-66
2024/02/22 02:26:48;;;;;;;;;;;;;;;-128.00;-1.00;-1.00;106458;1257;1002177;-68
2024/02/22 02:29:16;;;;;;;;;;;;;;;-128.00;-1.00;-1.00;106423;1258;1002325;-66
2024/02/22 02:31:43;;;;;;;;;;;;;;;-128.00;-1.00;-1.00;106420;1257;1002307;-66
2024/02/22 02:34:11;;;;;;;;;;;;;;;-128.00;-1.00;-1.00;106426;1257;1002110;-66
2024/02/22 02:36:38;;;;;;;;;;;;;;;-128.00;-1.00;-1.00;106734;1254;1002748;-68
2024/02/22 02:39:06;;;;;;;;;;;;;;;-128.00;-1.00;-1.00;106745;1254;1002543;-66
2024/02/22 02:41:33;;;;;;;;;;;;;;;-128.00;-1.00;-1.00;106783;1254;1001965;-68
2024/02/22 02:44:00;;;;;;;;;;;;;;;-128.00;-1.00;-1.00;106732;1254;1002366;-66
2024/02/22 02:46:28;;;;;;;;;;;;;;;-128.00;-1.00;-1.00;106490;1254;1002969;-66
2024/02/22 02:48:55;;;;;;;;;;;;;;;-128.00;-1.00;-1.00;106674;1254;1002516;-67
2024/02/22 02:51:23;;;;;;;;;;;;;;;-128.00;-1.00;-1.00;106781;1254;1002534;-68
2024/02/22 02:53:50;;;;;;;;;;;;;;;-128.00;-1.00;-1.00;106773;1254;1002784;-66
2024/02/22 02:56:18;;;;;;;;;;;;;;;-128.00;-1.00;-1.00;106479;1254;1002525;-67
2024/02/22 02:58:45;;;;;;;;;;;;;;;-128.00;-1.00;-1.00;106794;1254;1002556;-66
2024/02/22 03:01:13;;;;;;;;;;;;;;;-128.00;-1.00;-1.00;106725;1253;1001855;-68
2024/02/22 03:03:40;;;;;;;;;;;;;;;-128.00;-1.00;-1.00;106788;1254;1002717;-67
2024/02/22 03:06:08;;;;;;;;;;;;;;;-128.00;-1.00;-1.00;106794;1253;1002709;-66
2024/02/22 03:08:35;;;;;;;;;;;;;;;-128.00;-1.00;-1.00;106798;1254;1002470;-66
2024/02/22 03:11:03;;;;;;;;;;;;;;;-128.00;-1.00;-1.00;106767;1254;1002317;-66
2024/02/22 03:13:31;;;;;;;;;;;;;;;-128.00;-1.00;-1.00;106473;1254;1002919;-68
2024/02/22 03:15:58;;;;;;;;;;;;;;;-128.00;-1.00;-1.00;106766;1258;1001723;-65
2024/02/22 03:18:25;;;;;;;;;;;;;;;-128.00;-1.00;-1.00;106812;1253;1002324;-67
2024/02/22 03:20:53;;;;;;;;;;;;;;;-128.00;-1.00;-1.00;106704;1253;1001929;-67
2024/02/22 03:23:23;;;;;;;;;;;;;;;-128.00;-1.00;-1.00;106861;1253;1002407;-67
2024/02/22 03:25:50;;;;;;;;;;;;;;;-128.00;-1.00;-1.00;106876;1253;1010207;-67
2024/02/22 03:28:19;;;;;;;;;;;;;;;-128.00;-1.00;-1.00;106911;1253;1002249;-66
2024/02/22 03:30:47;;;;;;;;;;;;;;;-128.00;-1.00;-1.00;106657;1254;1012987;-66
2024/02/22 03:33:14;;;;;;;;;;;;;;;-128.00;-1.00;-1.00;106963;1253;1002490;-66
2024/02/22 03:35:42;;;;;;;;;;;;;;;-128.00;-1.00;-1.00;106747;1254;1002228;-65
2024/02/22 03:38:09;;;;;;;;;;;;;;;-128.00;-1.00;-1.00;106662;1254;1002838;-63
2024/02/22 03:40:37;;;;;;;;;;;;;;;-128.00;-1.00;-1.00;106621;1254;1002675;-67
2024/02/22 03:43:04;;;;;;;;;;;;;;;-128.00;-1.00;-1.00;106662;1254;1003012;-62
2024/02/22 03:45:32;;;;;;;;;;;;;;;-128.00;-1.00;-1.00;106590;1254;1002338;-63
2024/02/22 03:48:00;;;;;;;;;;;;;;;-128.00;-1.00;-1.00;106670;1254;1002128;-66
2024/02/22 03:50:27;;;;;;;;;;;;;;;-128.00;-1.00;-1.00;106581;1254;1001929;-67
2024/02/22 03:52:55;;;;;;;;;;;;;;;-128.00;-1.00;-1.00;106636;1254;1002879;-64
2024/02/22 03:55:22;;;;;;;;;;;;;;;-128.00;-1.00;-1.00;106614;1256;1002494;-64
2024/02/22 03:57:50;;;;;;;;;;;;;;;-128.00;-1.00;-1.00;106478;1257;1002268;-65
2024/02/22 04:00:17;;;;;;;;;;;;;;;-128.00;-1.00;-1.00;106460;1254;1002682;-65
2024/02/22 04:02:46;;;;;;;;;;;;;;;-128.00;-1.00;-1.00;106618;1254;1002441;-65
2024/02/22 04:05:14;;;;;;;;;;;;;;;-128.00;-1.00;-1.00;106578;1254;1010050;-64
2024/02/22 04:07:42;;;;;;;;;;;;;;;-128.00;-1.00;-1.00;106499;1254;1001771;-66
2024/02/22 04:10:10;;;;;;;;;;;;;;;-128.00;-1.00;-1.00;106892;1252;1002536;-64
2024/02/22 04:12:37;;;;;;;;;;;;;;;-128.00;-1.00;-1.00;106893;1253;1002270;-67
2024/02/22 04:15:05;;;;;;;;;;;;;;;-128.00;-1.00;-1.00;106955;1252;1002259;-65
2024/02/22 04:17:32;;;;;;;;;;;;;;;-128.00;-1.00;-1.00;106866;1253;1002487;-65
2024/02/22 04:20:00;;;;;;;;;;;;;;;-128.00;-1.00;-1.00;106908;1253;1002583;-64
2024/02/22 04:22:27;;;;;;;;;;;;;;;-128.00;-1.00;-1.00;106969;1251;1002533;-65
2024/02/22 04:24:55;;;;;;;;;;;;;;;-128.00;-1.00;-1.00;106763;1254;1002383;-65
2024/02/22 04:27:22;;;;;;;;;;;;;;;-128.00;-1.00;-1.00;106576;1254;1002362;-64
2024/02/22 04:29:49;;;;;;;;;;;;;;;-128.00;-1.00;-1.00;106642;1254;1003045;-67
2024/02/22 04:32:17;;;;;;;;;;;;;;;-128.00;-1.00;-1.00;106648;1254;1002539;-65
2024/02/22 04:34:44;;;;;;;;;;;;;;;-128.00;-1.00;-1.00;106461;1254;1002454;-66
2024/02/22 04:37:15;;;;;;;;;;;;;;;-128.00;-1.00;-1.00;106619;1254;1002830;-65
2024/02/22 04:39:43;;;;;;;;;;;;;;;-128.00;-1.00;-1.00;106622;1254;1010233;-68
2024/02/22 04:42:11;;;;;;;;;;;;;;;-128.00;-1.00;-1.00;106628;1254;1002522;-67
2024/02/22 04:44:39;;;;;;;;;;;;;;;-128.00;-1.00;-1.00;106642;1254;1002303;-65
2024/02/22 04:47:08;;;;;;;;;;;;;;;-128.00;-1.00;-1.00;106586;1254;1012887;-65
2024/02/22 04:49:35;;;;;;;;;;;;;;;-128.00;-1.00;-1.00;106399;1254;1002536;-63
2024/02/22 04:52:03;;;;;;;;;;;;;;;-128.00;-1.00;-1.00;106637;1254;1002549;-63
2024/02/22 04:54:32;;;;;;;;;;;;;;;-128.00;-1.00;-1.00;106619;1254;1002712;-62
2024/02/22 04:57:08;;;;;;;;;;;;;;;-128.00;-1.00;-1.00;106847;1251;1012767;-65
2024/02/22 04:59:37;;;;;;;;;;;;;;;-128.00;-1.00;-1.00;106538;1251;1002458;-65
2024/02/22 05:02:05;;;;;;;;;;;;;;;-128.00;-1.00;-1.00;106904;1251;1012704;-64
2024/02/22 05:04:32;;;;;;;;;;;;;;;-128.00;-1.00;-1.00;106929;1254;1002548;-65
2024/02/22 05:07:00;;;;;;;;;;;;;;;-128.00;-1.00;-1.00;106947;1251;1002565;-65
2024/02/22 05:09:29;;;;;;;;;;;;;;;-128.00;-1.00;-1.00;106948;1254;1002248;-65
2024/02/22 05:11:56;;;;;;;;;;;;;;;-128.00;-1.00;-1.00;106955;1253;1012106;-64
2024/02/22 05:14:24;;;;;;;;;;;;;;;-128.00;-1.00;-1.00;106554;1251;1002335;-63
2024/02/22 05:16:51;;;;;;;;;;;;;;;-128.00;-1.00;-1.00;106537;1251;1002398;-65
2024/02/22 05:19:19;;;;;;;;;;;;;;;-128.00;-1.00;-1.00;106907;1251;1002175;-65
2024/02/22 05:21:51;;;;;;;;;;;;;;;-128.00;-1.00;-1.00;106668;1253;1002086;-65
2024/02/22 05:24:19;;;;;;;;;;;;;;;-128.00;-1.00;-1.00;106590;1256;1013058;-66
2024/02/22 05:26:46;;;;;;;;;;;;;;;-128.00;-1.00;-1.00;106463;1256;1002083;-68
2024/02/22 05:29:14;;;;;;;;;;;;;;;-128.00;-1.00;-1.00;106434;1256;1002369;-68
2024/02/22 05:31:41;;;;;;;;;;;;;;;-128.00;-1.00;-1.00;106565;1256;1001975;-68
2024/02/22 05:34:09;;;;;;;;;;;;;;;-128.00;-1.00;-1.00;106480;1255;1001880;-68
2024/02/22 05:36:36;;;;;;;;;;;;;;;-128.00;-1.00;-1.00;106566;1256;1002286;-69
2024/02/22 05:39:06;;;;;;;;;;;;;;;-128.00;-1.00;-1.00;106410;1259;1002324;-68
2024/02/22 05:41:34;;;;;;;;;;;;;;;-128.00;-1.00;-1.00;106351;1258;1010203;-68
2024/02/22 05:44:02;;;;;;;;;;;;;;;-128.00;-1.00;-1.00;106313;1259;1002573;-66
2024/02/22 05:46:30;;;;;;;;;;;;;;;-128.00;-1.00;-1.00;106389;1258;1002351;-66
2024/02/22 05:48:57;;;;;;;;;;;;;;;-128.00;-1.00;-1.00;106387;1260;1002542;-66
2024/02/22 05:51:25;;;;;;;;;;;;;;;-128.00;-1.00;-1.00;106335;1259;1002574;-68
2024/02/22 05:53:53;;;;;;;;;;;;;;;-128.00;-1.00;-1.00;106435;1256;1002507;-66
2024/02/22 05:56:21;;;;;;;;;;;;;;;-128.00;-1.00;-1.00;106497;1256;1002004;-67
2024/02/22 05:58:48;;;;;;;;;;;;;;;-128.00;-1.00;-1.00;106516;1257;1002739;-67
2024/02/22 06:01:16;;;;;;;;;;;;;;;-128.00;-1.00;-1.00;106534;1255;1002189;-66
2024/02/22 06:03:45;;;;;;;;;;;;;;;-128.00;-1.00;-1.00;106611;1256;1013286;-67
2024/02/22 06:06:13;;;;;;;;;;;;;;;-128.00;-1.00;-1.00;106447;1257;1010189;-68
2024/02/22 06:08:42;;;;;;;;;;;;;;;-128.00;-1.00;-1.00;106520;1255;1010351;-66
2024/02/22 06:11:11;;;;;;;;;;;;;;;-128.00;-1.00;-1.00;106751;1253;1013048;-69
2024/02/22 06:13:39;;;;;;;;;;;;;;;-128.00;-1.00;-1.00;106754;1253;1012043;-67
2024/02/22 06:16:06;;;;;;;;;;;;;;;-128.00;-1.00;-1.00;106748;1254;1002851;-68
2024/02/22 06:18:34;;;;;;;;;;;;;;;-128.00;-1.00;-1.00;106770;1253;1002420;-66
2024/02/22 06:21:04;;;;;;;;;;;;;;;-128.00;-1.00;-1.00;106792;1253;1009757;-66
2024/02/22 06:23:32;;;;;;;;;;;;;;;-128.00;-1.00;-1.00;106826;1253;1002603;-69
2024/02/22 06:26:00;;;;;;;;;;;;;;;-128.00;-1.00;-1.00;106697;1254;1002215;-69
2024/02/22 06:28:27;;;;;;;;;;;;;;;-128.00;-1.00;-1.00;106850;1253;1002783;-68
2024/02/22 06:30:55;;;;;;;;;;;;;;;-128.00;-1.00;-1.00;106662;1253;1002882;-68
2024/02/22 06:33:22;;;;;;;;;;;;;;;-128.00;-1.00;-1.00;106903;1254;1002820;-68
2024/02/22 06:35:50;;;;;;;;;;;;;;;-128.00;-1.00;-1.00;106907;1253;1002593;-67
2024/02/22 06:38:18;;;;;;;;;;;;;;;-128.00;-1.00;-1.00;106872;1253;1001753;-67
2024/02/22 06:40:48;;;;;;;;;;;;;;;-128.00;-1.00;-1.00;106634;1252;1003105;-68
2024/02/22 06:43:16;;;;;;;;;;;;;;;-128.00;-1.00;-1.00;106897;1254;1010053;-68
2024/02/22 06:45:44;;;;;;;;;;;;;;;-128.00;-1.00;-1.00;106887;1253;1002100;-66
2024/02/22 06:48:11;;;;;;;;;;;;;;;-128.00;-1.00;-1.00;106873;1253;1002270;-67
2024/02/22 06:50:39;;;;;;;;;;;;;;;-128.00;-1.00;-1.00;106886;1253;1002789;-68
2024/02/22 06:53:06;;;;;;;;;;;;;;;-128.00;-1.00;-1.00;106939;1253;1001848;-69
2024/02/22 06:55:34;;;;;;;;;;;;;;;-128.00;-1.00;-1.00;106768;1253;1003125;-67
2024/02/22 06:58:04;;;;;;;;;;;;;;;-128.00;-1.00;-1.00;106585;1252;1002733;-68
2024/02/22 07:00:35;;;;;;;;;;;;;;;-128.00;-1.00;-1.00;106900;1253;1012648;-67
2024/02/22 07:03:02;;;;;;;;;;;;;;;-128.00;-1.00;-1.00;106905;1253;1012601;-68
2024/02/22 07:05:32;;;;;;;;;;;;;;;-128.00;-1.00;-1.00;106647;1252;1012938;-68
2024/02/22 07:08:00;;;;;;;;;;;;;;;-128.00;-1.00;-1.00;106928;1253;1002817;-68
2024/02/22 07:10:28;;;;;;;;;;;;;;;-128.00;-1.00;-1.00;106844;1253;1002404;-68
2024/02/22 07:12:55;;;;;;;;;;;;;;;-128.00;-1.00;-1.00;106897;1252;1002318;-67
2024/02/22 07:15:23;;;;;;;;;;;;;;;-128.00;-1.00;-1.00;106621;1254;1002499;-68
2024/02/22 07:17:51;;;;;;;;;;;;;;;-128.00;-1.00;-1.00;106922;1253;1002418;-68
2024/02/22 07:20:19;;;;;;;;;;;;;;;-128.00;-1.00;-1.00;106816;1253;1010020;-68
2024/02/22 07:22:52;;;;;;;;;;;;;;;-128.00;-1.00;-1.00;106574;1252;1002878;-68
2024/02/22 07:25:20;;;;;;;;;;;;;;;-128.00;-1.00;-1.00;106882;1252;1013590;-69
2024/02/22 07:27:50;;;;;;;;;;;;;;;-128.00;-1.00;-1.00;106818;1257;1013136;-67
2024/02/22 07:30:18;;;;;;;;;;;;;;;-128.00;-1.00;-1.00;106882;1252;1012817;-69
2024/02/22 07:32:46;;;;;;;;;;;;;;;-128.00;-1.00;-1.00;106831;1253;1002321;-67
2024/02/22 07:35:14;;;;;;;;;;;;;;;-128.00;-1.00;-1.00;106807;1254;1002254;-69
2024/02/22 07:37:42;;;;;;;;;;;;;;;-128.00;-1.00;-1.00;106900;1252;1012967;-68
2024/02/22 07:40:10;;;;;;;;;;;;;;;-128.00;-1.00;-1.00;106823;1252;1002459;-68
2024/02/22 07:42:39;;;;;;;;;;;;;;;-128.00;-1.00;-1.00;106888;1252;1013295;-68
2024/02/22 07:45:06;;;;;;;;;;;;;;;-128.00;-1.00;-1.00;106810;1253;1009888;-68
2024/02/22 07:47:34;;;;;;;;;;;;;;;-128.00;-1.00;-1.00;106886;1252;1002529;-68
2024/02/22 07:50:01;;;;;;;;;;;;;;;-128.00;-1.00;-1.00;106847;1254;1002550;-69
2024/02/22 07:52:29;;;;;;;;;;;;;;;-128.00;-1.00;-1.00;106871;1252;1002607;-69
2024/02/22 07:54:56;;;;;;;;;;;;;;;-128.00;-1.00;-1.00;106799;1254;1002057;-68
2024/02/22 07:57:24;;;;;;;;;;;;;;;-128.00;-1.00;-1.00;106866;1252;1002369;-69
2024/02/22 07:59:55;;;;;;;;;;;;;;;-128.00;-1.00;-1.00;106780;1252;1002364;-68
2024/02/22 08:02:23;;;;;;;;;;;;;;;-128.00;-1.00;-1.00;106662;1253;1013788;-68
2024/02/22 08:04:51;;;;;;;;;;;;;;;-128.00;-1.00;-1.00;106854;1252;1002378;-68
2024/02/22 08:07:19;;;;;;;;;;;;;;;-128.00;-1.00;-1.00;106696;1253;1002536;-69
2024/02/22 08:09:47;;;;;;;;;;;;;;;-128.00;-1.00;-1.00;106785;1253;1002450;-68
2024/02/22 08:12:15;;;;;;;;;;;;;;;-128.00;-1.00;-1.00;106747;1254;1010564;-68
2024/02/22 08:14:42;;;;;;;;;;;;;;;-128.00;-1.00;-1.00;106624;1254;1002478;-69
2024/02/22 08:17:17;;;;;;;;;;;;;;;-128.00;-1.00;-1.00;106648;1254;1013822;-68
2024/02/22 08:19:47;;;;;;;;;;;;;;;-128.00;-1.00;-1.00;106619;1254;1012316;-68
2024/02/22 08:22:16;;;;;;;;;;;;;;;-128.00;-1.00;-1.00;106635;1254;1009823;-67
2024/02/22 08:24:44;;;;;;;;;;;;;;;-128.00;-1.00;-1.00;106643;1254;1010477;-68
2024/02/22 08:27:11;;;;;;;;;;;;;;;-128.00;-1.00;-1.00;106616;1254;1003355;-68
2024/02/22 08:29:39;;;;;;;;;;;;;;;-128.00;-1.00;-1.00;106636;1256;1002360;-68
2024/02/22 08:32:07;;;;;;;;;;;;;;;-128.00;-1.00;-1.00;106629;1254;1002159;-68
2024/02/22 08:34:35;;;;;;;;;;;;;;;-128.00;-1.00;-1.00;106622;1254;1010507;-68
2024/02/22 08:37:02;;;;;;;;;;;;;;;-128.00;-1.00;-1.00;106658;1254;1002481;-69
2024/02/22 08:39:30;;;;;;;;;;;;;;;-128.00;-1.00;-1.00;106454;1254;1002867;-69
2024/02/22 08:41:57;;;;;;;;;;;;;;;-128.00;-1.00;-1.00;106604;1254;1002244;-68
2024/02/22 08:44:26;;;;;;;;;;;;;;;-128.00;-1.00;-1.00;106840;1252;1002128;-69
2024/02/22 08:46:54;;;;;;;;;;;;;;;-128.00;-1.00;-1.00;106871;1252;1010813;-69
2024/02/22 08:49:21;;;;;;;;;;;;;;;-128.00;-1.00;-1.00;106855;1252;1002280;-70
2024/02/22 08:51:48;;;;;;;;;;;;;;;-128.00;-1.00;-1.00;106959;1252;1002175;-68
2024/02/22 08:54:16;;;;;;;;;;;;;;;-128.00;-1.00;-1.00;106627;1253;1002822;-68
2024/02/22 08:56:45;;;;;;;;;;;;;;;-128.00;-1.00;-1.00;106719;1253;1002753;-68
2024/02/22 08:59:12;;;;;;;;;;;;;;;-128.00;-1.00;-1.00;106710;1253;1009175;-69
2024/02/22 09:01:40;;;;;;;;;;;;;;;-128.00;-1.00;-1.00;106855;1252;1002250;-70
2024/02/22 09:04:07;;;;;;;;;;;;;;;-128.00;-1.00;-1.00;106638;1256;1001773;-70
2024/02/22 09:06:35;;;;;;;;;;;;;;;-128.00;-1.00;-1.00;106859;1253;1002421;-70
2024/02/22 09:09:07;;;;;;;;;;;;;;;-128.00;-1.00;-1.00;106997;1252;1002243;-69
2024/02/22 09:11:35;;;;;;;;;;;;;;;-128.00;-1.00;-1.00;106854;1252;1009606;-70
2024/02/22 09:14:02;;;;;;;;;;;;;;;-128.00;-1.00;-1.00;106853;1253;1002439;-69
2024/02/22 09:16:30;;;;;;;;;;;;;;;-128.00;-1.00;-1.00;106949;1252;1002344;-70
2024/02/22 09:18:57;;;;;;;;;;;;;;;-128.00;-1.00;-1.00;106830;1253;1002339;-70
2024/02/22 09:21:25;;;;;;;;;;;;;;;-128.00;-1.00;-1.00;106900;1252;1002202;-69
2024/02/22 09:23:52;;;;;;;;;;;;;;;-128.00;-1.00;-1.00;106816;1254;1002584;-69
2024/02/22 09:26:21;;;;;;;;;;;;;;;-128.00;-1.00;-1.00;106878;1252;1003377;-70
2024/02/22 09:28:49;;;;;;;;;;;;;;;-128.00;-1.00;-1.00;106860;1253;1013755;-70
2024/02/22 09:31:17;;;;;;;;;;;;;;;-128.00;-1.00;-1.00;106862;1253;1002590;-69
2024/02/22 09:33:44;;;;;;;;;;;;;;;-128.00;-1.00;-1.00;106829;1253;1002560;-70
2024/02/22 09:36:12;;;;;;;;;;;;;;;-128.00;-1.00;-1.00;106857;1252;1002046;-69
2024/02/22 09:38:39;;;;;;;;;;;;;;;-128.00;-1.00;-1.00;106892;1253;1002814;-69
2024/02/22 09:41:09;;;;;;;;;;;;;;;-128.00;-1.00;-1.00;106930;1253;1002344;-70
2024/02/22 09:43:36;;;;;;;;;;;;;;;-128.00;-1.00;-1.00;106846;1253;1012323;-69
2024/02/22 09:46:04;;;;;;;;;;;;;;;-128.00;-1.00;-1.00;106903;1253;1002353;-70
2024/02/22 09:48:32;;;;;;;;;;;;;;;-128.00;-1.00;-1.00;106800;1252;1002407;-70
2024/02/22 09:50:59;;;;;;;;;;;;;;;-128.00;-1.00;-1.00;106863;1253;1010808;-69
2024/02/22 09:53:27;;;;;;;;;;;;;;;-128.00;-1.00;-1.00;106924;1252;1002114;-69
2024/02/22 09:55:55;;;;;;;;;;;;;;;-128.00;-1.00;-1.00;106857;1253;1012905;-69
2024/02/22 09:58:23;;;;;;;;;;;;;;;-128.00;-1.00;-1.00;106850;1253;1002425;-69
2024/02/22 10:00:50;;;;;;;;;;;;;;;-128.00;-1.00;-1.00;106824;1252;1001920;-69
2024/02/22 10:03:28;;;;;;;;;;;;;;;-128.00;-1.00;-1.00;106849;1252;1002893;-69
2024/02/22 10:05:55;;;;;;;;;;;;;;;-128.00;-1.00;-1.00;106581;1253;1012912;-69
2024/02/22 10:08:23;;;;;;;;;;;;;;;-128.00;-1.00;-1.00;106891;1253;1002547;-70
2024/02/22 10:10:55;;;;;;;;;;;;;;;-128.00;-1.00;-1.00;106866;1252;1002355;-69
2024/02/22 10:13:22;;;;;;;;;;;;;;;-128.00;-1.00;-1.00;106826;1253;1010136;-69
2024/02/22 10:15:50;;;;;;;;;;;;;;;-128.00;-1.00;-1.00;106843;1252;1002234;-69
2024/02/22 10:18:28;;;;;;;;;;;;;;;-128.00;-1.00;-1.00;106921;1253;1002498;-69
2024/02/22 10:20:56;;;;;;;;;;;;;;;-128.00;-1.00;-1.00;106873;1253;1013583;-70
2024/02/22 10:23:23;;;;;;;;;;;;;;;-128.00;-1.00;-1.00;106863;1253;1003015;-69
2024/02/22 10:26:00;;;;;;;;;;;;;;;-128.00;-1.00;-1.00;106854;1252;1003013;-70
2024/02/22 10:28:28;;;;;;;;;;;;;;;-128.00;-1.00;-1.00;106847;1252;1010998;-70
2024/02/22 10:31:02;;;;;;;;;;;;;;;-128.00;-1.00;-1.00;106931;1252;1002375;-70
2024/02/22 10:33:30;;;;;;;;;;;;;;;-128.00;-1.00;-1.00;106752;1254;1013288;-69
2024/02/22 10:35:58;;;;;;;;;;;;;;;-128.00;-1.00;-1.00;106659;1254;1001762;-70
2024/02/22 10:38:26;;;;;;;;;;;;;;;-128.00;-1.00;-1.00;106598;1254;1010114;-70
2024/02/22 10:40:55;;;;;;;;;;;;;;;-128.00;-1.00;-1.00;106607;1254;1002551;-70
2024/02/22 10:43:22;;;;;;;;;;;;;;;-128.00;-1.00;-1.00;106620;1254;1013070;-69
2024/02/22 10:45:50;;;;;;;;;;;;;;;-128.00;-1.00;-1.00;106513;1254;1002486;-69
2024/02/22 10:48:17;;;;;;;;;;;;;;;-128.00;-1.00;-1.00;106553;1254;1002803;-69
2024/02/22 10:50:45;;;;;;;;;;;;;;;-128.00;-1.00;-1.00;106606;1254;1003001;-70
2024/02/22 10:53:13;;;;;;;;;;;;;;;-128.00;-1.00;-1.00;106614;1254;1002866;-70
2024/02/22 10:55:40;;;;;;;;;;;;;;;-128.00;-1.00;-1.00;106569;1256;1001915;-70
2024/02/22 10:58:08;;;;;;;;;;;;;;;-128.00;-1.00;-1.00;106489;1255;1002382;-70
2024/02/22 11:00:36;;;;;;;;;;;;;;;-128.00;-1.00;-1.00;106577;1254;1002391;-70
2024/02/22 11:03:03;;;;;;;;;;;;;;;-128.00;-1.00;-1.00;106581;1254;1002364;-69
2024/02/22 11:05:35;;;;;;;;;;;;;;;-128.00;-1.00;-1.00;106852;1252;1003232;-70
2024/02/22 11:08:05;;;;;;;;;;;;;;;-128.00;-1.00;-1.00;106939;1252;1013156;-69
2024/02/22 11:10:32;;;;;;;;;;;;;;;-128.00;-1.00;-1.00;106814;1253;1001977;-70
2024/02/22 11:13:03;;;;;;;;;;;;;;;-128.00;-1.00;-1.00;106930;1252;1002982;-69
2024/02/22 11:15:34;;;;;;;;;;;;;;;-128.00;-1.00;-1.00;106857;1254;1010469;-70
2024/02/22 11:18:03;;;;;;;;;;;;;;;-128.00;-1.00;-1.00;106896;1252;1010838;-71
2024/02/22 11:20:31;;;;;;;;;;;;;;;-128.00;-1.00;-1.00;106876;1252;1002743;-70
2024/02/22 11:23:09;;;;;;;;;;;;;;;-128.00;-1.00;-1.00;106902;1253;1013435;-71
2024/02/22 11:25:37;;;;;;;;;;;;;;;-128.00;-1.00;-1.00;106868;1252;1012925;-71
2024/02/22 11:28:05;;;;;;;;;;;;;;;-128.00;-1.00;-1.00;106937;1253;1002277;-71
2024/02/22 11:30:32;;;;;;;;;;;;;;;-128.00;-1.00;-1.00;106886;1252;1002297;-71
2024/02/22 11:33:00;;;;;;;;;;;;;;;-128.00;-1.00;-1.00;106934;1252;1002952;-70
2024/02/22 11:35:28;;;;;;;;;;;;;;;-128.00;-1.00;-1.00;106847;1257;1002547;-70
2024/02/22 11:37:59;;;;;;;;;;;;;;;-128.00;-1.00;-1.00;106819;1252;1002910;-70
2024/02/22 11:40:30;;;;;;;;;;;;;;;-128.00;-1.00;-1.00;106845;1253;1010078;-71
2024/02/22 11:42:58;;;;;;;;;;;;;;;-128.00;-1.00;-1.00;106906;1253;1011462;-70
2024/02/22 11:45:26;;;;;;;;;;;;;;;-128.00;-1.00;-1.00;106900;1253;1002139;-69
2024/02/22 11:47:54;;;;;;;;;;;;;;;-128.00;-1.00;-1.00;106576;1260;1013041;-69
2024/02/22 11:50:21;;;;;;;;;;;;;;;-128.00;-1.00;-1.00;106881;1253;1002421;-71
2024/02/22 11:52:49;;;;;;;;;;;;;;;-128.00;-1.00;-1.00;106872;1252;1002435;-70
2024/02/22 11:55:17;;;;;;;;;;;;;;;-128.00;-1.00;-1.00;106855;1253;1001855;-70
2024/02/22 11:57:44;;;;;;;;;;;;;;;-128.00;-1.00;-1.00;106563;1252;1002048;-70
2024/02/22 12:00:12;;;;;;;;;;;;;;;-128.00;-1.00;-1.00;106902;1253;1002404;-70
2024/02/22 12:02:40;;;;;;;;;;;;;;;-128.00;-1.00;-1.00;106867;1253;1002350;-70
2024/02/22 12:05:09;;;;;;;;;;;;;;;-128.00;-1.00;-1.00;106765;1254;1002542;-71
2024/02/22 12:07:37;;;;;;;;;;;;;;;-128.00;-1.00;-1.00;106877;1253;1010329;-71
2024/02/22 12:10:05;;;;;;;;;;;;;;;-128.00;-1.00;-1.00;106867;1253;1013147;-72
2024/02/22 12:12:33;;;;;;;;;;;;;;;-128.00;-1.00;-1.00;106632;1256;1012317;-71
2024/02/22 12:15:04;;;;;;;;;;;;;;;-128.00;-1.00;-1.00;106860;1252;1002019;-70
2024/02/22 12:17:34;;;;;;;;;;;;;;;-128.00;-1.00;-1.00;106834;1252;1010912;-71
2024/02/22 12:20:03;;;;;;;;;;;;;;;-128.00;-1.00;-1.00;106602;1252;1011755;-72
2024/02/22 12:22:33;;;;;;;;;;;;;;;-128.00;-1.00;-1.00;106501;1253;1012937;-72
2024/02/22 12:25:00;;;;;;;;;;;;;;;-128.00;-1.00;-1.00;106761;1253;1013077;-71
2024/02/22 12:27:28;;;;;;;;;;;;;;;-128.00;-1.00;-1.00;106681;1253;1002847;-71
2024/02/22 12:29:57;;;;;;;;;;;;;;;-128.00;-1.00;-1.00;106739;1253;1001873;-71
2024/02/22 12:32:25;;;;;;;;;;;;;;;-128.00;-1.00;-1.00;106790;1253;1011135;-70